Time;durP1;ratioP1;P1;durP2;ratioP2;P2;SDS_P1;SDS_P2;PMS_P1;PMS_P2;Temp;Humidity;BMP_temperature;BMP_pressure;BME280_temperature;BME280_humidity;BME280_pressure;Samples;Min_cycle;Max_cycle;Signal;HPM_P1;HPM_P2
2022/01/17 00:07:30;;;;;;;32.70;17.23;;;4.80;99.90;;;;;;4222892;27;20420;-82
2022/01/17 00:09:32;;;;;;;32.63;15.32;;;4.10;99.90;;;;;;4214676;28;20047;-78
2022/01/17 00:11:35;;;;;;;32.85;16.35;;;4.00;99.90;;;;;;4215798;28;20044;-79
2022/01/17 00:13:39;;;;;;;25.55;13.70;;;3.90;99.90;;;;;;4206318;28;20444;-78
2022/01/17 00:15:47;;;;;;;26.40;13.50;;;3.80;99.90;;;;;;4199366;28;20518;-79
2022/01/17 00:17:57;;;;;;;28.67;13.15;;;3.80;99.90;;;;;;4228668;28;20856;-80
2022/01/17 00:20:08;;;;;;;29.25;14.90;;;3.80;99.90;;;;;;4201540;28;20053;-78
2022/01/17 00:22:13;;;;;;;25.17;13.85;;;3.70;99.90;;;;;;4192376;28;20072;-78
2022/01/17 00:24:18;;;;;;;;;;;3.70;99.90;;;;;;4195233;28;20081;-78
2022/01/17 00:26:19;;;;;;;48.70;21.10;;;3.70;99.90;;;;;;4198401;28;20007;-79
2022/01/17 00:28:21;;;;;;;37.72;19.63;;;3.70;99.90;;;;;;4199966;28;20056;-80
2022/01/17 00:30:23;;;;;;;42.65;19.00;;;3.60;99.90;;;;;;4191937;28;20094;-78
2022/01/17 00:32:25;;;;;;;51.85;21.25;;;3.60;99.90;;;;;;4204787;28;20048;-78
2022/01/17 00:34:27;;;;;;;44.05;19.67;;;3.60;99.90;;;;;;4200199;28;20430;-79
2022/01/17 00:36:29;;;;;;;34.85;19.67;;;3.50;99.90;;;;;;4228124;27;20136;-79
2022/01/17 00:38:31;;;;;;;37.85;19.40;;;3.60;99.90;;;;;;4202865;28;20059;-80
2022/01/17 00:40:34;;;;;;;37.03;19.45;;;3.60;99.90;;;;;;4203468;28;20044;-79
2022/01/17 00:42:36;;;;;;;34.42;18.20;;;3.60;99.90;;;;;;4205862;28;20736;-81
2022/01/17 00:44:37;;;;;;;39.42;21.05;;;3.60;99.90;;;;;;4207373;28;20039;-79
2022/01/17 00:46:39;;;;;;;40.03;20.40;;;3.60;99.90;;;;;;4204035;28;20052;-81
2022/01/17 00:48:41;;;;;;;32.40;19.30;;;3.60;99.90;;;;;;4200715;28;20119;-83
2022/01/17 00:50:44;;;;;;;33.30;17.98;;;3.50;99.90;;;;;;4200972;28;20044;-81
2022/01/17 00:52:46;;;;;;;35.47;18.08;;;3.40;99.90;;;;;;4204156;28;20048;-79
2022/01/17 00:54:48;;;;;;;36.75;18.80;;;3.30;99.90;;;;;;4195580;28;20045;-82
2022/01/17 00:56:50;;;;;;;28.38;16.48;;;3.30;99.90;;;;;;4202167;28;21138;-82
2022/01/17 00:58:52;;;;;;;29.30;15.10;;;3.20;99.90;;;;;;4212237;28;20036;-82
2022/01/17 01:00:54;;;;;;;36.55;16.45;;;3.20;99.90;;;;;;4195455;28;20526;-79
2022/01/17 01:02:56;;;;;;;28.08;14.48;;;3.10;99.90;;;;;;4199920;28;20131;-78
2022/01/17 01:04:58;;;;;;;26.77;13.27;;;3.10;99.90;;;;;;4227420;28;20082;-78
2022/01/17 01:07:00;;;;;;;34.72;15.43;;;3.10;99.90;;;;;;4206024;28;20056;-78
2022/01/17 01:09:04;;;;;;;28.42;13.93;;;3.00;99.90;;;;;;4194887;28;20045;-78
2022/01/17 01:11:06;;;;;;;29.58;15.88;;;3.10;99.90;;;;;;4200123;28;20154;-78
2022/01/17 01:13:09;;;;;;;32.78;15.68;;;3.10;99.90;;;;;;4200033;28;20135;-80
2022/01/17 01:15:18;;;;;;;30.92;15.48;;;3.20;99.90;;;;;;4195648;28;20093;-78
2022/01/17 01:18:14;;;;;;;29.65;15.13;;;3.30;99.90;;;;;;4201027;28;20044;-79
2022/01/17 01:19:43;;;;;;;29.73;17.10;;;3.40;99.90;;;;;;4194893;28;20043;-78
2022/01/17 01:21:59;;;;;;;26.88;14.65;;;3.50;99.90;;;;;;4191253;28;20649;-79
2022/01/17 01:28:43;;;;;;;32.67;15.02;;;3.60;99.90;;;;;;4202289;28;20052;-78
2022/01/17 01:30:49;;;;;;;35.47;15.35;;;3.70;99.90;;;;;;4208190;28;20074;-78
2022/01/17 01:32:55;;;;;;;34.13;15.32;;;3.70;99.90;;;;;;4203761;28;20099;-80
2022/01/17 01:34:59;;;;;;;39.70;15.15;;;3.70;99.90;;;;;;4241190;27;20051;-79
2022/01/17 01:37:04;;;;;;;30.23;13.90;;;3.70;99.90;;;;;;4201857;28;20076;-79
2022/01/17 01:39:07;;;;;;;36.92;15.35;;;3.70;99.90;;;;;;4209634;28;20330;-80
2022/01/17 01:41:09;;;;;;;31.00;14.90;;;3.70;99.90;;;;;;4207548;28;20075;-79
2022/01/17 01:43:11;;;;;;;29.17;14.73;;;3.70;99.90;;;;;;4209007;28;20076;-79
2022/01/17 01:45:14;;;;;;;31.17;14.93;;;3.70;99.90;;;;;;4209678;28;20067;-79
2022/01/17 01:47:16;;;;;;;29.55;14.23;;;3.80;99.90;;;;;;4206313;28;20115;-81
2022/01/17 01:49:18;;;;;;;31.60;15.35;;;3.80;99.90;;;;;;4206294;28;20138;-79
2022/01/17 01:51:20;;;;;;;26.80;14.95;;;3.80;99.90;;;;;;4196600;28;20052;-79
2022/01/17 01:53:23;;;;;;;29.45;15.02;;;3.90;99.90;;;;;;4203555;28;20480;-78
2022/01/17 01:55:25;;;;;;;29.95;14.55;;;3.90;99.90;;;;;;4207055;28;20052;-79
2022/01/17 01:57:27;;;;;;;25.67;13.23;;;4.00;99.90;;;;;;4203447;28;20052;-79
2022/01/17 01:59:30;;;;;;;27.73;12.70;;;4.00;99.90;;;;;;4210554;28;20084;-81
2022/01/17 02:01:33;;;;;;;26.90;14.13;;;4.00;99.90;;;;;;4194085;28;20064;-78
2022/01/17 02:03:35;;;;;;;27.17;14.82;;;4.00;99.90;;;;;;4207421;28;20082;-79
2022/01/17 02:05:37;;;;;;;25.50;14.27;;;4.00;99.90;;;;;;4198774;28;20580;-78
2022/01/17 02:07:41;;;;;;;28.25;13.18;;;4.10;99.90;;;;;;4206356;28;20059;-79
2022/01/17 02:09:43;;;;;;;27.23;12.82;;;4.10;99.90;;;;;;4201747;28;20049;-79
2022/01/17 02:11:45;;;;;;;27.92;13.55;;;4.10;99.90;;;;;;4214650;28;20080;-80
2022/01/17 02:13:47;;;;;;;25.63;13.57;;;4.20;99.90;;;;;;4196225;28;20529;-79
2022/01/17 02:15:49;;;;;;;25.00;12.88;;;4.20;99.90;;;;;;4196586;28;20044;-79
2022/01/17 02:17:55;;;;;;;26.55;13.27;;;4.20;99.90;;;;;;4200347;28;20505;-90
2022/01/17 02:20:07;;;;;;;24.88;12.52;;;4.10;99.90;;;;;;4193712;28;20049;-89
2022/01/17 02:22:09;;;;;;;28.42;13.90;;;4.10;99.90;;;;;;4212989;28;20052;-79
2022/01/17 02:24:14;;;;;;;27.83;12.93;;;4.10;99.90;;;;;;4204191;28;20065;-79
2022/01/17 02:26:16;;;;;;;23.98;12.60;;;4.20;99.90;;;;;;4196780;28;20094;-80
2022/01/17 02:28:18;;;;;;;30.33;11.38;;;4.20;99.90;;;;;;4202069;28;20602;-79
2022/01/17 02:30:22;;;;;;;23.77;12.07;;;4.20;99.90;;;;;;4202068;28;20099;-79
2022/01/17 02:32:24;;;;;;;30.53;12.77;;;4.20;99.90;;;;;;4198377;28;20045;-79
2022/01/17 02:34:26;;;;;;;28.40;12.68;;;4.30;99.90;;;;;;4196904;28;20700;-79
2022/01/17 02:36:28;;;;;;;21.92;11.63;;;4.30;99.90;;;;;;4196574;28;20056;-80
2022/01/17 02:38:30;;;;;;;20.92;11.98;;;4.30;99.90;;;;;;4184360;28;20055;-79
2022/01/17 02:40:32;;;;;;;22.48;11.98;;;4.20;99.90;;;;;;4199275;28;20617;-79
2022/01/17 02:42:35;;;;;;;27.92;12.70;;;4.20;99.90;;;;;;4194471;28;20044;-79
2022/01/17 02:44:44;;;;;;;28.42;12.60;;;4.30;99.90;;;;;;4198773;28;20053;-78
2022/01/17 02:46:46;;;;;;;24.73;11.85;;;4.20;99.90;;;;;;4194467;28;20602;-79
2022/01/17 02:48:48;;;;;;;17.58;10.30;;;4.20;99.90;;;;;;4188083;28;20736;-79
2022/01/17 02:50:51;;;;;;;21.05;11.93;;;4.30;99.90;;;;;;4194405;28;20049;-78
2022/01/17 02:53:03;;;;;;;17.92;10.98;;;4.20;99.90;;;;;;4202533;28;20048;-79
2022/01/17 02:55:06;;;;;;;24.83;11.90;;;4.20;99.90;;;;;;4187582;28;20091;-79
2022/01/17 02:57:08;;;;;;;17.73;10.75;;;4.20;99.90;;;;;;4187491;28;20053;-79
2022/01/17 02:59:10;;;;;;;17.75;10.43;;;4.30;99.90;;;;;;4195652;28;20406;-80
2022/01/17 03:01:18;;;;;;;20.80;11.32;;;4.30;99.90;;;;;;4202647;28;20118;-79
2022/01/17 03:03:23;;;;;;;19.67;11.52;;;4.30;99.90;;;;;;4194318;28;20048;-79
2022/01/17 03:05:25;;;;;;;18.90;10.65;;;4.30;99.90;;;;;;4191586;28;20343;-90
2022/01/17 03:07:27;;;;;;;17.23;9.93;;;4.30;99.90;;;;;;4199578;28;20544;-90
2022/01/17 03:09:38;;;;;;;18.40;11.07;;;4.30;99.90;;;;;;4193598;28;20045;-80
2022/01/17 03:11:40;;;;;;;19.65;11.65;;;4.30;99.90;;;;;;4194188;28;20132;-79
2022/01/17 03:13:42;;;;;;;24.80;12.57;;;4.30;99.90;;;;;;4192612;28;20055;-79
2022/01/17 03:15:47;;;;;;;19.65;12.38;;;4.30;99.90;;;;;;4189712;28;20049;-80
2022/01/17 03:17:49;;;;;;;21.52;11.85;;;4.30;99.90;;;;;;4195169;28;20057;-79
2022/01/17 03:19:51;;;;;;;18.98;10.43;;;4.30;99.90;;;;;;4199558;28;20048;-79
2022/01/17 03:21:53;;;;;;;18.65;10.93;;;4.20;99.90;;;;;;4196300;28;20105;-79
2022/01/17 03:23:55;;;;;;;23.65;11.98;;;4.20;99.90;;;;;;4188452;28;20052;-79
2022/01/17 03:25:57;;;;;;;22.98;12.18;;;4.10;99.90;;;;;;4193144;28;20052;-79
2022/01/17 03:28:00;;;;;;;16.90;10.25;;;4.00;99.90;;;;;;4187077;28;20102;-81
2022/01/17 03:30:02;;;;;;;20.05;10.82;;;3.90;99.90;;;;;;4213304;28;20044;-78
2022/01/17 03:32:04;;;;;;;20.98;11.10;;;3.90;99.90;;;;;;4192115;28;20553;-79
2022/01/17 03:34:06;;;;;;;15.15;10.40;;;3.90;99.90;;;;;;4193464;28;20049;-78
2022/01/17 03:36:08;;;;;;;22.75;10.93;;;3.80;99.90;;;;;;4191471;28;20055;-79
2022/01/17 03:38:13;;;;;;;18.33;10.80;;;3.70;99.90;;;;;;4204892;28;20040;-79
2022/01/17 03:40:15;;;;;;;25.02;11.23;;;3.60;99.90;;;;;;4200491;28;20052;-79
2022/01/17 03:42:18;;;;;;;17.88;10.63;;;3.50;99.90;;;;;;4194391;28;20055;-81
2022/01/17 03:44:21;;;;;;;18.98;11.07;;;3.50;99.90;;;;;;4194618;28;20537;-80
2022/01/17 03:46:24;;;;;;;17.05;11.32;;;3.50;99.90;;;;;;4202111;28;20071;-79
2022/01/17 03:48:28;;;;;;;22.20;12.68;;;3.40;99.90;;;;;;4197771;28;20533;-80
2022/01/17 03:50:29;;;;;;;20.27;12.20;;;3.30;99.90;;;;;;4198127;28;20079;-80
2022/01/17 03:52:32;;;;;;;24.25;12.10;;;3.30;99.90;;;;;;4196289;28;20121;-81
2022/01/17 03:54:34;;;;;;;25.17;13.23;;;3.20;99.90;;;;;;4196161;28;20068;-79
2022/01/17 03:56:36;;;;;;;24.63;12.48;;;3.20;99.90;;;;;;4196625;28;20048;-81
2022/01/17 03:58:38;;;;;;;20.85;12.23;;;3.20;99.90;;;;;;4202083;28;20059;-79
2022/01/17 04:00:42;;;;;;;21.67;12.52;;;3.20;99.90;;;;;;4209817;28;20045;-79
2022/01/17 04:02:44;;;;;;;21.60;12.27;;;3.10;99.90;;;;;;4192922;28;20487;-82
2022/01/17 04:04:46;;;;;;;31.50;13.10;;;3.10;99.90;;;;;;4196560;28;20041;-79
2022/01/17 04:06:48;;;;;;;32.20;12.98;;;3.10;99.90;;;;;;4203711;28;20509;-81
2022/01/17 04:08:50;;;;;;;35.10;12.73;;;3.10;99.90;;;;;;4193239;28;20123;-80
2022/01/17 04:10:57;;;;;;;39.33;13.07;;;3.20;99.90;;;;;;4200145;28;20045;-79
2022/01/17 04:13:04;;;;;;;59.63;12.85;;;3.20;99.90;;;;;;4204022;28;20048;-81
2022/01/17 04:15:07;;;;;;;50.13;12.27;;;3.20;99.90;;;;;;4200906;28;20048;-79
2022/01/17 04:17:09;;;;;;;101.45;14.25;;;3.30;99.90;;;;;;4197065;28;20075;-79
2022/01/17 04:19:12;;;;;;;68.60;12.68;;;3.30;99.90;;;;;;4200106;28;20048;-79
2022/01/17 04:21:14;;;;;;;42.95;12.18;;;3.30;99.90;;;;;;4208974;28;20040;-78
2022/01/17 04:23:17;;;;;;;68.40;13.25;;;3.40;99.90;;;;;;4202253;28;20080;-79
2022/01/17 04:25:19;;;;;;;210.93;17.50;;;3.40;99.90;;;;;;4195120;28;20494;-79
2022/01/17 04:27:21;;;;;;;72.93;12.57;;;3.50;99.90;;;;;;4188709;28;20049;-79
2022/01/17 04:29:23;;;;;;;111.75;14.43;;;3.50;99.90;;;;;;4204759;28;20047;-80
2022/01/17 04:31:25;;;;;;;136.45;14.95;;;3.60;99.90;;;;;;4200053;28;20749;-80
2022/01/17 04:33:27;;;;;;;169.95;16.48;;;3.60;99.90;;;;;;4189691;28;20056;-79
2022/01/17 04:35:30;;;;;;;99.15;14.43;;;3.70;99.90;;;;;;4205986;28;20174;-79
2022/01/17 04:37:32;;;;;;;153.65;15.52;;;3.70;99.90;;;;;;4184116;28;20095;-79
2022/01/17 04:39:35;;;;;;;180.60;18.17;;;3.70;99.90;;;;;;4201874;28;20055;-79
2022/01/17 04:41:39;;;;;;;61.33;13.00;;;3.80;99.90;;;;;;4190672;28;20072;-80
2022/01/17 04:45:45;;;;;;;63.72;13.20;;;3.90;99.90;;;;;;4194125;28;20041;-79
2022/01/17 04:47:49;;;;;;;79.72;13.73;;;3.90;99.90;;;;;;4197919;28;20076;-80
2022/01/17 04:49:52;;;;;;;61.35;13.45;;;3.90;99.90;;;;;;4186692;28;20052;-79
2022/01/17 04:51:54;;;;;;;83.82;15.13;;;3.90;99.90;;;;;;4189242;28;20048;-79
2022/01/17 04:54:19;;;;;;;61.30;12.65;;;3.80;99.90;;;;;;4198951;28;20045;-80
2022/01/17 04:56:18;;;;;;;64.47;12.43;;;3.80;99.90;;;;;;4200043;28;20052;-80
2022/01/17 04:58:20;;;;;;;66.57;11.68;;;3.70;99.90;;;;;;4198740;28;20108;-80
2022/01/17 05:00:25;;;;;;;41.08;11.25;;;3.60;99.90;;;;;;4188222;28;20049;-80
2022/01/17 05:02:27;;;;;;;76.88;13.20;;;3.50;99.90;;;;;;4197055;28;20049;-79
2022/01/17 05:04:29;;;;;;;78.55;15.95;;;3.50;99.90;;;;;;4206840;28;20123;-80
2022/01/17 05:06:31;;;;;;;207.50;33.55;;;3.40;99.90;;;;;;4197899;28;20079;-79
2022/01/17 05:08:33;;;;;;;346.20;77.13;;;3.40;99.90;;;;;;4197626;28;20044;-80
2022/01/17 05:10:35;;;;;;;72.15;14.95;;;3.30;99.90;;;;;;4198903;28;20056;-80
2022/01/17 05:12:38;;;;;;;57.72;14.77;;;3.30;99.90;;;;;;4191727;28;20435;-79
2022/01/17 05:14:43;;;;;;;60.28;14.63;;;3.30;99.90;;;;;;4191594;28;20044;-79
2022/01/17 05:16:53;;;;;;;120.00;27.30;;;3.20;99.90;;;;;;4200965;28;20048;-79
2022/01/17 05:21:15;;;;;;;131.70;19.15;;;3.30;99.90;;;;;;4193838;28;20072;-80
2022/01/17 05:23:17;;;;;;;88.40;17.42;;;3.40;99.90;;;;;;4198141;28;20064;-79
2022/01/17 05:25:19;;;;;;;50.67;19.42;;;3.50;99.90;;;;;;4202924;28;20044;-81
2022/01/17 05:27:21;;;;;;;65.35;25.52;;;3.50;99.90;;;;;;4199857;28;20098;-79
2022/01/17 05:29:23;;;;;;;73.40;26.15;;;3.50;99.90;;;;;;4206306;28;20056;-79
2022/01/17 05:31:25;;;;;;;27.67;15.95;;;3.50;99.90;;;;;;4202968;28;20048;-80
2022/01/17 05:33:27;;;;;;;37.78;18.90;;;3.60;99.90;;;;;;4197304;28;20051;-79
2022/01/17 05:35:29;;;;;;;42.47;14.40;;;3.60;99.90;;;;;;4206436;28;20063;-79
2022/01/17 05:37:31;;;;;;;36.60;15.18;;;3.60;99.90;;;;;;4196673;28;20049;-80
2022/01/17 05:39:34;;;;;;;48.92;16.05;;;3.70;99.90;;;;;;4203505;28;20075;-80
2022/01/17 05:41:35;;;;;;;63.28;17.05;;;3.70;99.90;;;;;;4191807;28;20049;-79
2022/01/17 05:43:37;;;;;;;47.65;16.65;;;3.70;99.90;;;;;;4205007;28;20048;-80
2022/01/17 05:45:42;;;;;;;60.92;17.35;;;3.80;99.90;;;;;;4198468;28;20044;-80
2022/01/17 05:47:45;;;;;;;64.15;16.05;;;3.80;99.90;;;;;;4195917;28;20422;-79
2022/01/17 05:49:48;;;;;;;81.93;14.90;;;3.80;99.90;;;;;;4194776;28;20044;-82
2022/01/17 05:51:50;;;;;;;91.82;14.52;;;3.80;99.90;;;;;;4196220;28;20529;-81
2022/01/17 05:53:51;;;;;;;158.18;18.70;;;3.80;99.90;;;;;;4195546;28;20568;-79
2022/01/17 05:55:53;;;;;;;71.38;13.52;;;3.90;99.90;;;;;;4201312;28;20045;-80
2022/01/17 05:57:56;;;;;;;81.90;14.02;;;3.90;99.90;;;;;;4198604;28;20118;-80
2022/01/17 06:00:00;;;;;;;129.55;15.70;;;3.90;99.90;;;;;;4205756;28;20045;-80
2022/01/17 06:02:02;;;;;;;199.23;19.20;;;3.90;99.90;;;;;;4197078;28;20510;-79
2022/01/17 06:04:04;;;;;;;76.80;14.35;;;3.90;99.90;;;;;;4199488;28;20115;-80
2022/01/17 06:06:07;;;;;;;134.40;17.92;;;3.90;99.90;;;;;;4193980;28;20041;-79
2022/01/17 06:08:09;;;;;;;59.67;14.23;;;3.90;99.90;;;;;;4188191;28;20123;-82
2022/01/17 06:10:11;;;;;;;74.68;14.27;;;3.90;99.90;;;;;;4195261;28;20048;-80
2022/01/17 06:12:13;;;;;;;53.45;12.50;;;3.90;99.90;;;;;;4193059;28;20040;-82
2022/01/17 06:14:17;;;;;;;218.15;18.52;;;3.90;99.90;;;;;;4198522;28;20073;-82
2022/01/17 06:16:19;;;;;;;127.90;15.82;;;3.90;99.90;;;;;;4188249;28;20048;-80
2022/01/17 06:18:21;;;;;;;124.38;13.98;;;3.90;99.90;;;;;;4189940;28;20517;-81
2022/01/17 06:20:23;;;;;;;94.57;12.82;;;3.90;99.90;;;;;;4189752;28;20076;-79
2022/01/17 06:22:25;;;;;;;89.80;15.07;;;3.90;99.90;;;;;;4199216;28;20110;-80
2022/01/17 06:24:27;;;;;;;108.07;13.65;;;3.90;99.90;;;;;;4198788;28;20510;-78
2022/01/17 06:26:29;;;;;;;107.32;14.15;;;3.90;99.90;;;;;;4194810;28;20078;-79
2022/01/17 06:28:31;;;;;;;117.78;13.68;;;4.00;99.90;;;;;;4190372;28;20106;-78
2022/01/17 06:30:33;;;;;;;95.50;13.60;;;4.10;99.90;;;;;;4186786;28;20102;-84
2022/01/17 06:32:35;;;;;;;104.57;13.13;;;4.20;99.90;;;;;;4190770;28;20128;-87
2022/01/17 06:34:38;;;;;;;34.55;10.95;;;4.30;99.90;;;;;;4201356;28;20048;-80
2022/01/17 06:36:45;;;;;;;42.38;12.90;;;4.40;99.90;;;;;;4188195;28;20049;-79
2022/01/17 06:38:49;;;;;;;43.63;13.20;;;4.50;99.90;;;;;;4188816;28;20115;-85
2022/01/17 06:40:51;;;;;;;87.13;14.00;;;4.50;99.90;;;;;;4192644;28;20071;-90
2022/01/17 06:42:54;;;;;;;46.75;12.52;;;4.60;99.90;;;;;;4200785;28;20049;-87
2022/01/17 06:44:56;;;;;;;83.03;13.63;;;4.60;99.90;;;;;;4196366;28;20084;-83
2022/01/17 06:46:58;;;;;;;120.20;15.00;;;4.60;99.90;;;;;;4196222;28;20071;-88
2022/01/17 06:49:00;;;;;;;44.38;13.05;;;4.70;99.90;;;;;;4206271;28;20054;-86
2022/01/17 06:51:02;;;;;;;58.33;15.20;;;4.80;99.90;;;;;;4212088;28;20078;-90
2022/01/17 06:53:04;;;;;;;89.22;15.80;;;4.80;99.90;;;;;;4217439;28;20060;-88
2022/01/17 06:55:07;;;;;;;46.70;15.70;;;4.90;99.90;;;;;;4222131;28;20040;-88
2022/01/17 06:57:10;;;;;;;47.20;16.15;;;5.00;99.90;;;;;;4212722;28;20045;-92
2022/01/17 06:59:12;;;;;;;31.08;14.85;;;5.00;99.90;;;;;;4205557;28;20063;-91
2022/01/17 07:01:15;;;;;;;34.63;14.35;;;5.10;99.90;;;;;;4214259;28;20070;-96
2022/01/17 07:03:17;;;;;;;33.17;14.52;;;5.10;99.90;;;;;;4221828;28;20063;-96
2022/01/17 07:05:19;;;;;;;29.83;14.68;;;5.10;99.90;;;;;;4212810;28;20045;-93
2022/01/17 07:07:21;;;;;;;34.00;15.63;;;5.10;99.90;;;;;;4206807;28;20061;-91
2022/01/17 07:09:25;;;;;;;28.13;14.20;;;5.10;99.90;;;;;;4210818;28;20036;-89
2022/01/17 07:11:27;;;;;;;34.85;16.35;;;5.00;99.90;;;;;;4225427;28;20060;-93
2022/01/17 07:13:29;;;;;;;31.75;14.05;;;5.00;99.90;;;;;;4208350;28;20033;-91
2022/01/17 07:15:31;;;;;;;26.02;12.40;;;4.90;99.90;;;;;;4217614;28;20052;-89
2022/01/17 07:17:34;;;;;;;27.17;13.15;;;4.90;99.90;;;;;;4217987;28;20072;-87
2022/01/17 07:19:37;;;;;;;26.20;12.63;;;4.80;99.90;;;;;;4219855;28;20033;-87
2022/01/17 07:21:39;;;;;;;24.65;12.18;;;4.80;99.90;;;;;;4225514;28;20048;-90
2022/01/17 07:24:02;;;;;;;23.00;12.27;;;4.70;99.90;;;;;;4214248;28;20043;-88
2022/01/17 07:26:04;;;;;;;27.30;13.30;;;4.80;99.90;;;;;;4201733;28;20032;-87
2022/01/17 07:28:08;;;;;;;36.20;14.05;;;4.70;99.90;;;;;;4209921;28;20052;-88
2022/01/17 07:30:11;;;;;;;29.85;13.25;;;4.70;99.90;;;;;;4216722;28;20086;-86
2022/01/17 07:32:13;;;;;;;29.58;13.73;;;4.70;99.90;;;;;;4221131;28;20055;-88
2022/01/17 07:34:15;;;;;;;29.23;13.20;;;4.70;99.90;;;;;;4223550;28;20036;-89
2022/01/17 07:36:19;;;;;;;24.92;12.18;;;4.70;99.90;;;;;;4220420;28;20044;-87
2022/01/17 07:38:21;;;;;;;36.85;17.70;;;4.70;99.90;;;;;;4220343;28;20053;-89
2022/01/17 07:40:24;;;;;;;27.75;13.90;;;4.60;99.90;;;;;;4220753;28;20070;-91
2022/01/17 07:42:26;;;;;;;39.05;17.13;;;4.60;99.90;;;;;;4220993;28;20028;-89
2022/01/17 07:44:30;;;;;;;46.80;22.25;;;4.60;99.90;;;;;;4220219;28;20028;-85
2022/01/17 07:46:36;;;;;;;51.00;23.30;;;4.70;99.90;;;;;;4214068;28;20059;-86
2022/01/17 07:49:03;;;;;;;49.88;22.08;;;4.60;99.90;;;;;;4214096;28;20063;-90
2022/01/17 07:51:05;;;;;;;32.95;17.65;;;4.60;99.90;;;;;;4215410;28;20127;-88
2022/01/17 07:53:07;;;;;;;28.60;13.73;;;4.60;99.90;;;;;;4217970;28;20052;-86
2022/01/17 07:55:11;;;;;;;41.28;18.85;;;4.60;99.90;;;;;;4230372;28;20049;-92
2022/01/17 07:57:16;;;;;;;27.90;14.15;;;4.60;99.90;;;;;;4209750;28;20048;-88
2022/01/17 07:59:19;;;;;;;22.88;12.68;;;4.70;99.90;;;;;;4229317;28;20051;-87
2022/01/17 08:01:21;;;;;;;23.10;13.07;;;4.70;99.90;;;;;;4216445;28;20037;-88
2022/01/17 08:03:23;;;;;;;22.30;11.65;;;4.70;99.90;;;;;;4215920;28;20037;-88
2022/01/17 08:05:25;;;;;;;25.90;12.23;;;4.70;99.90;;;;;;4222721;28;20071;-87
2022/01/17 08:07:28;;;;;;;24.15;13.88;;;4.70;99.90;;;;;;4233686;28;20052;-85
2022/01/17 08:09:32;;;;;;;22.15;12.95;;;4.70;99.90;;;;;;4221200;28;20088;-86
2022/01/17 08:11:37;;;;;;;28.38;12.15;;;4.70;99.90;;;;;;4213771;28;20032;-90
2022/01/17 08:13:39;;;;;;;31.13;13.30;;;4.60;99.90;;;;;;4215192;28;20036;-92
2022/01/17 08:15:42;;;;;;;26.42;13.38;;;4.70;99.90;;;;;;4219689;28;20056;-86
2022/01/17 08:17:47;;;;;;;29.15;14.23;;;4.70;99.90;;;;;;4219218;28;20028;-89
2022/01/17 08:19:49;;;;;;;27.17;12.90;;;4.70;99.90;;;;;;4220487;28;20048;-86
2022/01/17 08:21:52;;;;;;;23.80;13.02;;;4.70;99.90;;;;;;4219060;28;20059;-89
2022/01/17 08:23:54;;;;;;;30.95;14.23;;;4.70;99.90;;;;;;4218773;28;20029;-87
2022/01/17 08:25:56;;;;;;;33.75;15.13;;;4.80;99.90;;;;;;4217140;28;20044;-83
2022/01/17 08:27:58;;;;;;;25.73;14.02;;;4.80;99.90;;;;;;4222105;28;20040;-84
2022/01/17 08:30:00;;;;;;;21.88;12.73;;;4.80;99.90;;;;;;4203095;28;20029;-84
2022/01/17 08:32:23;;;;;;;22.33;13.13;;;4.90;99.90;;;;;;4224332;28;20028;-88
2022/01/17 08:34:25;;;;;;;39.58;21.77;;;4.90;99.90;;;;;;4220826;28;20054;-89
2022/01/17 08:36:27;;;;;;;35.15;18.17;;;4.90;99.90;;;;;;4218350;28;20036;-87
2022/01/17 08:38:30;;;;;;;33.47;18.77;;;4.90;99.90;;;;;;4212990;28;20052;-90
2022/01/17 08:40:33;;;;;;;32.92;17.88;;;4.80;99.90;;;;;;4219386;28;20059;-91
2022/01/17 08:42:37;;;;;;;38.15;20.42;;;4.90;99.90;;;;;;4219227;28;20029;-83
2022/01/17 08:44:39;;;;;;;37.67;20.85;;;4.90;99.90;;;;;;4222061;28;20052;-83
2022/01/17 08:46:42;;;;;;;43.70;23.27;;;4.80;99.90;;;;;;4219672;28;20094;-83
2022/01/17 08:48:44;;;;;;;42.17;23.13;;;4.80;99.90;;;;;;4218016;28;20529;-85
2022/01/17 08:50:47;;;;;;;41.97;22.08;;;4.90;99.90;;;;;;4217320;28;20029;-84
2022/01/17 08:52:50;;;;;;;34.22;19.40;;;4.70;99.90;;;;;;4218409;28;20074;-85
2022/01/17 08:54:53;;;;;;;47.72;25.00;;;4.70;99.90;;;;;;4218648;28;20070;-89
2022/01/17 08:56:55;;;;;;;50.97;24.55;;;4.70;99.90;;;;;;4217468;28;20052;-85
2022/01/17 08:59:00;;;;;;;78.32;23.15;;;4.70;99.90;;;;;;4206494;28;20037;-83
2022/01/17 09:01:02;;;;;;;70.10;26.17;;;4.70;99.90;;;;;;4208173;28;20102;-82
2022/01/17 09:03:05;;;;;;;47.78;22.88;;;4.60;99.90;;;;;;4211783;28;20059;-82
2022/01/17 09:05:07;;;;;;;63.42;27.33;;;4.60;99.90;;;;;;4219232;28;20039;-83
2022/01/17 09:07:11;;;;;;;62.85;27.25;;;4.60;99.90;;;;;;4210600;28;20103;-82
2022/01/17 09:09:13;;;;;;;49.25;21.25;;;4.50;99.90;;;;;;4206801;28;20041;-81
2022/01/17 09:11:15;;;;;;;47.85;21.00;;;4.50;99.90;;;;;;4211234;28;20532;-82
2022/01/17 09:13:18;;;;;;;48.42;20.45;;;4.50;99.90;;;;;;4199793;28;20064;-86
2022/01/17 09:15:20;;;;;;;70.20;21.85;;;4.40;99.90;;;;;;4192995;28;20503;-82
2022/01/17 09:17:22;;;;;;;63.70;21.38;;;4.40;99.90;;;;;;4200054;28;20053;-81
2022/01/17 09:19:26;;;;;;;51.20;20.30;;;4.40;99.90;;;;;;4195586;28;20544;-82
2022/01/17 09:21:28;;;;;;;53.15;22.80;;;4.40;99.90;;;;;;4200520;28;20137;-81
2022/01/17 09:23:30;;;;;;;52.97;22.38;;;4.40;99.90;;;;;;4207814;28;20049;-82
2022/01/17 09:25:33;;;;;;;51.80;22.05;;;4.40;99.90;;;;;;4197311;28;20052;-80
2022/01/17 09:27:36;;;;;;;34.67;16.73;;;4.40;99.90;;;;;;4195720;28;20048;-80
2022/01/17 09:29:38;;;;;;;31.23;14.25;;;4.50;99.90;;;;;;4203815;28;20526;-80
2022/01/17 09:31:40;;;;;;;25.10;13.90;;;4.70;99.90;;;;;;4199065;28;20041;-80
2022/01/17 09:33:42;;;;;;;27.50;14.90;;;4.80;99.90;;;;;;4197335;28;20044;-81
2022/01/17 09:35:44;;;;;;;23.88;14.88;;;4.90;99.90;;;;;;4208027;28;20078;-81
2022/01/17 09:37:46;;;;;;;22.38;12.15;;;5.00;99.90;;;;;;4195725;28;20064;-95
2022/01/17 09:39:48;;;;;;;19.15;11.43;;;5.10;99.90;;;;;;4204570;28;20077;-82
2022/01/17 09:41:50;;;;;;;19.45;11.73;;;5.10;99.90;;;;;;4207458;28;20082;-82
2022/01/17 09:43:53;;;;;;;17.45;10.80;;;5.20;99.90;;;;;;4212937;28;20052;-82
2022/01/17 09:45:56;;;;;;;23.65;10.55;;;5.30;99.90;;;;;;4209051;28;20076;-80
2022/01/17 09:48:01;;;;;;;16.85;10.18;;;5.30;99.90;;;;;;4197122;28;20818;-81
2022/01/17 09:50:10;;;;;;;19.83;9.83;;;5.30;99.90;;;;;;4198340;28;20048;-80
2022/01/17 09:54:36;;;;;;;15.10;9.75;;;5.50;99.90;;;;;;4197952;28;20076;-80
2022/01/17 09:56:38;;;;;;;17.30;10.02;;;5.50;99.90;;;;;;4201544;28;20055;-79
2022/01/17 09:58:41;;;;;;;26.10;13.90;;;5.60;99.90;;;;;;4201154;28;20044;-82
2022/01/17 10:00:44;;;;;;;35.60;15.18;;;5.70;99.90;;;;;;4201774;28;20052;-80
2022/01/17 10:02:47;;;;;;;30.48;13.85;;;5.70;99.90;;;;;;4197823;28;20048;-80
2022/01/17 10:04:51;;;;;;;34.40;14.98;;;5.70;99.90;;;;;;4188323;28;20108;-79
2022/01/17 10:06:54;;;;;;;38.53;20.42;;;5.80;99.90;;;;;;4189577;28;20541;-80
2022/01/17 10:09:22;;;;;;;36.42;20.88;;;5.80;99.90;;;;;;4203414;28;20055;-80
2022/01/17 10:11:24;;;;;;;42.38;21.90;;;5.90;99.90;;;;;;4188026;28;20099;-80
2022/01/17 10:13:41;;;;;;;28.60;16.90;;;5.90;99.90;;;;;;4201520;28;20505;-80
2022/01/17 10:16:06;;;;;;;30.02;17.52;;;5.80;99.90;;;;;;4219363;28;20048;-80
2022/01/17 10:18:27;;;;;;;33.85;18.27;;;5.80;99.90;;;;;;4212872;28;20118;-80
2022/01/17 10:20:32;;;;;;;34.78;21.27;;;5.80;99.90;;;;;;4202762;28;20074;-81
2022/01/17 10:22:45;;;;;;;31.45;17.92;;;5.90;99.90;;;;;;4202861;28;20072;-82
2022/01/17 10:24:58;;;;;;;34.42;22.13;;;5.90;99.90;;;;;;4206424;28;20044;-80
2022/01/17 10:36:15;;;;;;;33.10;18.98;;;6.30;99.90;;;;;;4211697;28;20059;-84
2022/01/17 10:38:22;;;;;;;26.98;16.13;;;6.30;99.90;;;;;;4208671;28;20076;-79
2022/01/17 10:40:26;;;;;;;30.08;17.33;;;6.40;99.90;;;;;;4198961;28;20072;-79
2022/01/17 10:42:43;;;;;;;20.92;13.48;;;6.40;99.90;;;;;;4204726;28;20453;-80
2022/01/17 10:44:45;;;;;;;28.48;13.63;;;6.40;99.90;;;;;;4208773;28;20044;-81
2022/01/17 10:46:47;;;;;;;22.83;14.60;;;6.50;99.90;;;;;;4202972;28;20588;-80
2022/01/17 10:49:05;;;;;;;26.90;14.70;;;6.50;99.90;;;;;;4202822;28;20509;-84
2022/01/17 10:51:12;;;;;;;36.63;18.90;;;6.60;99.90;;;;;;4195044;28;20078;-81
2022/01/17 10:53:19;;;;;;;28.15;14.77;;;6.70;99.90;;;;;;4188152;28;20513;-81
2022/01/17 10:55:27;;;;;;;27.48;14.15;;;6.80;99.90;;;;;;4193217;28;20041;-82
2022/01/17 10:57:36;;;;;;;23.95;13.18;;;6.90;99.90;;;;;;4208093;28;20051;-84
2022/01/17 10:59:38;;;;;;;28.05;13.85;;;6.90;99.90;;;;;;4187988;28;20049;-83
2022/01/17 11:01:40;;;;;;;22.02;12.68;;;6.90;99.90;;;;;;4200003;28;20044;-81